Two Rivers, Wisconsin
Current Conditions -  °F | °C
As of 5:22 AM on Wednesday 26 Nov 2014 (Local Time) from KMTW Reporting Station
Few Clouds Few Clouds  
Wind Chill: 16°   Ceiling: Unl
Heat Index: 16°   Visibility: 10mi
Dew Point: 14°   Wind: 0mph
Humidity: 93%   Direction: NA
Pressure: 30.15"   Gusts: NA
Location:  44.15°N, 87.57°W
Report Text: KMTW 261122Z AUTO 00000KT 10SM FEW016 M09/M10 A3015 RMK AO2 FZRANO
Loading
Personal Weather Stations






























Interactive Weather Map New forecast layout! Learn more

10-Day Weather Forecast

Advertisements
Track Severe Weather on mobile